Time;durP1;ratioP1;P1;durP2;ratioP2;P2;SDS_P1;SDS_P2;PMS_P1;PMS_P2;Temp;Humidity;BMP_temperature;BMP_pressure;BME280_temperature;BME280_humidity;BME280_pressure;Samples;Min_cycle;Max_cycle;Signal;HPM_P1;HPM_P2
2023/09/05 00:00:45;;;;;;;1.15;1.00;;;24.70;51.50;;;;;;5029887;28;20040;-61
2023/09/05 00:03:11;;;;;;;2.22;1.27;;;24.70;51.50;;;;;;5034399;28;20048;-61
2023/09/05 00:05:37;;;;;;;1.48;1.17;;;24.70;51.40;;;;;;5033740;28;20025;-62
2023/09/05 00:08:03;;;;;;;1.95;1.45;;;24.70;51.40;;;;;;5033618;28;20394;-62
2023/09/05 00:10:29;;;;;;;1.60;1.10;;;24.70;51.40;;;;;;5028629;28;20163;-61
2023/09/05 00:12:55;;;;;;;1.50;1.10;;;24.70;51.30;;;;;;5031049;28;20491;-61
2023/09/05 00:15:21;;;;;;;1.50;1.20;;;24.70;51.30;;;;;;5031399;28;20033;-61
2023/09/05 00:17:48;;;;;;;1.20;1.08;;;24.60;51.20;;;;;;5018210;28;20056;-62
2023/09/05 00:20:15;;;;;;;1.05;0.95;;;24.70;51.20;;;;;;5034380;28;20109;-62
2023/09/05 00:22:42;;;;;;;1.65;1.20;;;24.60;51.10;;;;;;5030048;28;20091;-62
2023/09/05 00:25:11;;;;;;;1.25;1.10;;;24.70;51.10;;;;;;5031588;28;20045;-63
2023/09/05 00:27:39;;;;;;;1.50;1.20;;;24.70;51.10;;;;;;5031298;28;20985;-62
2023/09/05 00:30:05;;;;;;;1.88;1.20;;;24.70;51.10;;;;;;5013415;28;20544;-63
2023/09/05 00:32:32;;;;;;;0.95;0.85;;;24.60;51.10;;;;;;5034346;28;20090;-62
2023/09/05 00:34:59;;;;;;;1.65;1.38;;;24.70;51.10;;;;;;5032256;28;20032;-62
2023/09/05 00:37:24;;;;;;;1.52;1.15;;;24.60;51.00;;;;;;5017255;28;20159;-64
2023/09/05 00:39:50;;;;;;;1.33;1.13;;;24.60;51.00;;;;;;5028924;28;20187;-61
2023/09/05 00:42:17;;;;;;;1.55;1.08;;;24.60;50.90;;;;;;5027132;28;20029;-62
2023/09/05 00:44:49;;;;;;;1.27;1.00;;;24.70;51.00;;;;;;5029714;28;20037;-62
2023/09/05 00:47:15;;;;;;;1.38;0.82;;;24.60;50.90;;;;;;5033200;28;20340;-62
2023/09/05 00:49:47;;;;;;;1.88;1.20;;;24.60;50.90;;;;;;5031042;28;20183;-63
2023/09/05 00:52:14;;;;;;;1.60;1.13;;;24.60;50.90;;;;;;5014864;28;20525;-61
2023/09/05 00:54:42;;;;;;;1.30;1.02;;;24.60;50.90;;;;;;5010707;28;20188;-61
2023/09/05 00:57:15;;;;;;;2.30;1.15;;;24.60;50.90;;;;;;5033185;28;20204;-62
2023/09/05 00:59:42;;;;;;;1.50;1.20;;;24.60;50.90;;;;;;5030078;28;20025;-60
2023/09/05 01:02:08;;;;;;;1.20;1.10;;;24.60;50.90;;;;;;5028625;28;20026;-61
2023/09/05 01:04:33;;;;;;;2.30;1.00;;;24.60;50.90;;;;;;5011679;28;20029;-61
2023/09/05 01:07:02;;;;;;;1.67;1.10;;;24.60;50.80;;;;;;5010826;28;20138;-62
2023/09/05 01:09:31;;;;;;;1.90;1.27;;;24.60;50.80;;;;;;5018179;28;20172;-61
2023/09/05 01:11:58;;;;;;;1.30;1.08;;;24.60;50.80;;;;;;5031892;28;20037;-61
2023/09/05 01:14:24;;;;;;;1.38;1.13;;;24.60;50.80;;;;;;5014548;28;20525;-62
2023/09/05 01:16:50;;;;;;;1.30;1.20;;;24.60;50.80;;;;;;5030427;28;20030;-62
2023/09/05 01:19:16;;;;;;;1.23;1.13;;;24.60;50.70;;;;;;4999210;28;20198;-61
2023/09/05 01:22:24;;;;;;;1.42;1.20;;;24.60;50.70;;;;;;5023379;28;20129;-62
2023/09/05 01:24:50;;;;;;;1.83;1.23;;;24.50;50.60;;;;;;5010684;28;20045;-62
2023/09/05 01:27:19;;;;;;;1.50;1.30;;;24.60;51.30;;;;;;5009062;28;20017;-61
2023/09/05 01:29:46;;;;;;;1.90;1.10;;;24.50;50.70;;;;;;4996611;28;20119;-62
2023/09/05 01:32:12;;;;;;;1.55;1.20;;;24.50;50.70;;;;;;5011350;28;20105;-61
2023/09/05 01:34:38;;;;;;;1.88;1.20;;;24.50;50.60;;;;;;5011397;28;20156;-61
2023/09/05 01:37:06;;;;;;;1.60;1.35;;;24.60;50.70;;;;;;5038748;28;20028;-61
2023/09/05 01:39:32;;;;;;;1.27;1.10;;;24.50;50.60;;;;;;5029811;28;20037;-62
2023/09/05 01:41:59;;;;;;;1.77;1.30;;;24.50;50.70;;;;;;5011912;28;20163;-62
2023/09/05 01:44:25;;;;;;;1.58;1.30;;;24.50;50.60;;;;;;5011185;28;20048;-62
2023/09/05 01:46:51;;;;;;;1.33;1.08;;;24.50;50.70;;;;;;5025768;28;20056;-61
2023/09/05 01:49:17;;;;;;;1.33;1.10;;;24.50;50.70;;;;;;5014569;28;20026;-61
2023/09/05 01:51:43;;;;;;;1.73;1.30;;;24.50;50.70;;;;;;5034121;28;20468;-62
2023/09/05 01:54:10;;;;;;;1.65;1.10;;;24.50;50.70;;;;;;5007309;28;20033;-62
2023/09/05 01:56:36;;;;;;;1.83;1.30;;;24.40;50.70;;;;;;5033213;28;20444;-62
2023/09/05 01:59:02;;;;;;;1.90;1.27;;;24.40;50.70;;;;;;5010820;28;20021;-64
2023/09/05 02:01:28;;;;;;;1.70;1.08;;;24.40;50.70;;;;;;5011604;28;20025;-62
2023/09/05 02:03:54;;;;;;;1.73;1.30;;;24.40;50.80;;;;;;5031142;28;20040;-62
2023/09/05 02:06:20;;;;;;;2.53;1.20;;;24.40;50.80;;;;;;5035692;28;20024;-61
2023/09/05 02:08:46;;;;;;;1.30;1.02;;;24.40;50.80;;;;;;5039436;28;20373;-61
2023/09/05 02:11:12;;;;;;;1.02;0.80;;;24.40;50.80;;;;;;5017799;28;20578;-62
2023/09/05 02:13:38;;;;;;;1.67;1.00;;;24.40;50.80;;;;;;5015350;28;20028;-63
2023/09/05 02:16:04;;;;;;;1.45;1.20;;;24.40;50.80;;;;;;5015281;28;20048;-61
2023/09/05 02:18:30;;;;;;;1.30;1.10;;;24.40;50.90;;;;;;5019935;28;20029;-62
2023/09/05 02:21:01;;;;;;;1.38;1.20;;;24.40;50.90;;;;;;5017842;28;20042;-62
2023/09/05 02:23:27;;;;;;;1.35;1.00;;;24.40;50.90;;;;;;5032525;28;20108;-61
2023/09/05 02:26:03;;;;;;;1.63;1.02;;;24.40;50.90;;;;;;5024489;28;20396;-62
2023/09/05 02:28:29;;;;;;;1.58;1.30;;;24.40;50.90;;;;;;5032862;28;20029;-61
2023/09/05 02:30:55;;;;;;;1.95;1.33;;;24.40;51.00;;;;;;5028574;28;20053;-62
2023/09/05 02:33:22;;;;;;;1.42;1.23;;;24.40;51.00;;;;;;5012477;28;20044;-62
2023/09/05 02:35:49;;;;;;;1.10;0.93;;;24.40;51.00;;;;;;5033304;28;20033;-61
2023/09/05 02:38:15;;;;;;;1.52;1.20;;;24.40;51.00;;;;;;5033757;28;20056;-62
2023/09/05 02:40:46;;;;;;;1.70;1.20;;;24.40;51.00;;;;;;5015908;28;20419;-61
2023/09/05 02:43:13;;;;;;;1.83;1.27;;;24.40;51.00;;;;;;5035037;28;20116;-62
2023/09/05 02:45:38;;;;;;;1.80;1.17;;;24.40;51.00;;;;;;5018148;28;20122;-62
2023/09/05 02:48:06;;;;;;;1.50;1.00;;;24.40;51.00;;;;;;5017513;28;20097;-62
2023/09/05 02:50:32;;;;;;;1.77;1.20;;;24.30;50.90;;;;;;5044213;28;20087;-61
2023/09/05 02:52:57;;;;;;;1.40;1.10;;;24.40;51.00;;;;;;5023708;28;20037;-62
2023/09/05 02:55:24;;;;;;;1.75;1.20;;;24.30;50.90;;;;;;5028588;28;20120;-61
2023/09/05 02:57:51;;;;;;;1.80;1.20;;;24.30;50.90;;;;;;5025804;28;20024;-61
2023/09/05 03:00:19;;;;;;;1.30;0.95;;;24.30;50.90;;;;;;5024312;28;20452;-62
2023/09/05 03:02:46;;;;;;;1.73;1.30;;;24.30;50.90;;;;;;5041563;28;20056;-62
2023/09/05 03:05:15;;;;;;;2.53;1.25;;;24.30;50.90;;;;;;5045584;28;20424;-61
2023/09/05 03:07:41;;;;;;;1.45;1.00;;;24.30;51.00;;;;;;5020299;28;20060;-61
2023/09/05 03:10:08;;;;;;;1.65;1.13;;;24.30;51.00;;;;;;5028651;28;20033;-62
2023/09/05 03:12:34;;;;;;;1.50;1.10;;;24.30;51.00;;;;;;5027414;28;20525;-62
2023/09/05 03:14:59;;;;;;;1.38;1.02;;;24.30;51.00;;;;;;5027600;28;20105;-62
2023/09/05 03:17:26;;;;;;;1.85;1.35;;;24.30;51.00;;;;;;5019609;28;20402;-62
2023/09/05 03:19:52;;;;;;;1.67;1.17;;;24.30;51.00;;;;;;5026627;28;20397;-61
2023/09/05 03:22:18;;;;;;;1.35;0.93;;;24.30;51.00;;;;;;5047332;28;20021;-62
2023/09/05 03:24:44;;;;;;;1.15;1.05;;;24.30;51.00;;;;;;5043041;28;20469;-62
2023/09/05 03:27:10;;;;;;;1.80;1.20;;;24.30;51.00;;;;;;5028448;28;20685;-63
2023/09/05 03:29:36;;;;;;;1.25;1.10;;;24.30;51.00;;;;;;5045208;28;20056;-62
2023/09/05 03:32:02;;;;;;;1.20;1.00;;;24.30;51.00;;;;;;5044249;28;20317;-62
2023/09/05 03:34:30;;;;;;;1.67;1.10;;;24.30;51.00;;;;;;5025513;28;20074;-61
2023/09/05 03:36:57;;;;;;;1.60;1.17;;;24.20;50.90;;;;;;5045019;28;20038;-61
2023/09/05 03:39:23;;;;;;;2.63;1.38;;;24.20;51.00;;;;;;5046946;28;20099;-62
2023/09/05 03:41:49;;;;;;;1.20;1.05;;;24.20;50.90;;;;;;5043094;28;20040;-62
2023/09/05 03:44:16;;;;;;;1.75;1.13;;;24.20;51.00;;;;;;5042843;28;20056;-62
2023/09/05 03:46:44;;;;;;;2.08;1.17;;;24.20;51.00;;;;;;5023962;28;20046;-61
2023/09/05 03:49:09;;;;;;;1.83;1.08;;;24.20;51.00;;;;;;5026619;28;20099;-61
2023/09/05 03:51:35;;;;;;;1.75;1.20;;;24.20;51.00;;;;;;5043063;28;20109;-62
2023/09/05 03:54:01;;;;;;;1.83;1.25;;;24.20;51.00;;;;;;5025825;28;20098;-62
2023/09/05 03:56:29;;;;;;;1.67;0.90;;;24.20;51.00;;;;;;5024568;28;20025;-62
2023/09/05 03:58:55;;;;;;;1.50;1.10;;;24.20;51.00;;;;;;5035511;28;20380;-61
2023/09/05 04:01:21;;;;;;;1.20;0.90;;;24.20;51.00;;;;;;5022554;28;20052;-61
2023/09/05 04:03:47;;;;;;;1.80;1.00;;;24.20;51.00;;;;;;5042108;28;20498;-61
2023/09/05 04:06:13;;;;;;;8.38;1.65;;;24.20;51.00;;;;;;5039645;28;20131;-61
2023/09/05 04:08:39;;;;;;;1.85;1.30;;;24.20;51.00;;;;;;5019379;28;20352;-62
2023/09/05 04:11:05;;;;;;;1.40;1.10;;;24.20;51.00;;;;;;5047349;28;20029;-61
2023/09/05 04:13:31;;;;;;;1.73;1.05;;;24.20;51.00;;;;;;5029365;28;20055;-61
2023/09/05 04:16:04;;;;;;;1.83;1.10;;;24.20;51.00;;;;;;5046105;28;20021;-62
2023/09/05 04:18:31;;;;;;;1.75;1.40;;;24.20;51.00;;;;;;5035264;28;20455;-62
2023/09/05 04:21:00;;;;;;;1.88;1.33;;;24.10;51.00;;;;;;5043450;28;20132;-62
2023/09/05 04:23:27;;;;;;;1.20;1.02;;;24.10;51.00;;;;;;5045579;28;20017;-62
2023/09/05 04:26:00;;;;;;;1.67;1.10;;;24.20;51.00;;;;;;5043173;28;20528;-60
2023/09/05 04:28:28;;;;;;;2.33;1.30;;;24.20;51.10;;;;;;5020472;28;20336;-62
2023/09/05 04:30:55;;;;;;;2.13;1.20;;;24.10;51.00;;;;;;5024053;28;20029;-61
2023/09/05 04:33:31;;;;;;;1.92;1.33;;;24.10;51.10;;;;;;5035605;28;20086;-62
2023/09/05 04:35:57;;;;;;;2.10;1.27;;;24.10;51.10;;;;;;5024756;28;20029;-62
2023/09/05 04:38:24;;;;;;;2.42;1.40;;;24.10;51.10;;;;;;5020748;28;20021;-62
2023/09/05 04:40:50;;;;;;;1.48;1.02;;;24.10;51.00;;;;;;5041570;28;20158;-62
2023/09/05 04:43:15;;;;;;;1.40;1.23;;;24.10;51.10;;;;;;5042641;28;20033;-62
2023/09/05 04:45:41;;;;;;;1.30;1.20;;;24.10;51.00;;;;;;5045460;28;20453;-62
2023/09/05 04:48:07;;;;;;;2.08;1.45;;;24.10;51.00;;;;;;5036505;28;20446;-61
2023/09/05 04:50:33;;;;;;;3.20;1.20;;;24.10;51.00;;;;;;5038543;28;20042;-60
2023/09/05 04:52:59;;;;;;;2.15;1.38;;;24.10;51.00;;;;;;5036909;28;20463;-61
2023/09/05 04:55:25;;;;;;;1.40;1.23;;;24.10;51.00;;;;;;5039056;28;20427;-60
2023/09/05 04:57:51;;;;;;;2.15;1.17;;;24.10;51.00;;;;;;5043404;28;20083;-60
2023/09/05 05:00:19;;;;;;;2.78;1.40;;;24.10;51.00;;;;;;5040586;28;20908;-61
2023/09/05 05:02:45;;;;;;;2.65;1.70;;;24.10;51.00;;;;;;5036193;28;20277;-61
2023/09/05 05:05:13;;;;;;;1.40;1.27;;;24.10;51.00;;;;;;5041609;28;20420;-60
2023/09/05 05:07:40;;;;;;;1.98;1.27;;;24.10;51.00;;;;;;5031443;28;20053;-62
2023/09/05 05:10:07;;;;;;;1.25;1.00;;;24.10;51.00;;;;;;5042284;28;20044;-62
2023/09/05 05:12:33;;;;;;;1.88;1.17;;;24.10;51.00;;;;;;5042882;28;20033;-63
2023/09/05 05:14:59;;;;;;;1.35;1.10;;;24.10;51.00;;;;;;5042562;28;20029;-63
2023/09/05 05:17:25;;;;;;;2.97;1.25;;;24.00;50.90;;;;;;5034730;28;20017;-63
2023/09/05 05:19:51;;;;;;;2.53;1.27;;;24.10;51.00;;;;;;5041052;28;20017;-62
2023/09/05 05:22:17;;;;;;;2.17;1.25;;;24.10;51.60;;;;;;5040413;28;20028;-63
2023/09/05 05:24:42;;;;;;;1.70;1.25;;;24.10;51.00;;;;;;5041447;28;20086;-63
2023/09/05 05:27:08;;;;;;;1.48;1.25;;;24.00;50.90;;;;;;5044019;28;20336;-62
2023/09/05 05:29:34;;;;;;;2.13;1.42;;;24.10;51.00;;;;;;5038145;28;20025;-62
2023/09/05 05:32:01;;;;;;;2.22;1.20;;;24.00;50.90;;;;;;5024705;28;20056;-63
2023/09/05 05:34:28;;;;;;;1.60;1.20;;;24.00;50.90;;;;;;5040959;28;20033;-63
2023/09/05 05:36:54;;;;;;;2.35;1.02;;;24.00;50.90;;;;;;5020401;28;20021;-62
2023/09/05 05:39:22;;;;;;;3.22;1.20;;;24.00;50.90;;;;;;5041693;28;20036;-62
2023/09/05 05:41:48;;;;;;;1.17;1.02;;;24.00;50.90;;;;;;5043023;28;20336;-63
2023/09/05 05:44:14;;;;;;;1.88;1.20;;;24.10;51.00;;;;;;5043717;28;20029;-62
2023/09/05 05:46:41;;;;;;;1.90;1.10;;;24.10;51.00;;;;;;5041114;28;20060;-63
2023/09/05 05:49:08;;;;;;;2.67;1.33;;;24.00;50.90;;;;;;5023294;28;20036;-62
2023/09/05 05:51:35;;;;;;;1.98;1.48;;;24.10;51.00;;;;;;5038485;28;20037;-63
2023/09/05 05:54:01;;;;;;;2.13;1.35;;;24.00;50.90;;;;;;5044724;28;20178;-64
2023/09/05 05:56:27;;;;;;;1.73;1.30;;;24.10;51.00;;;;;;5041449;28;20021;-63
2023/09/05 05:58:53;;;;;;;1.80;1.33;;;24.00;50.90;;;;;;5035196;28;20167;-62
2023/09/05 06:01:19;;;;;;;1.67;1.30;;;24.10;51.00;;;;;;5023145;28;20135;-63
2023/09/05 06:03:46;;;;;;;1.27;1.17;;;24.00;50.90;;;;;;5043004;28;20029;-63
2023/09/05 06:06:12;;;;;;;1.40;1.20;;;24.00;50.90;;;;;;5039892;28;20045;-62
2023/09/05 06:08:40;;;;;;;1.70;1.30;;;24.10;51.00;;;;;;5032324;28;20071;-63
2023/09/05 06:11:06;;;;;;;2.05;1.20;;;24.10;51.00;;;;;;5043607;28;20064;-63
2023/09/05 06:13:32;;;;;;;2.08;1.38;;;24.00;51.00;;;;;;5040299;28;20037;-64
2023/09/05 06:15:58;;;;;;;1.60;1.20;;;24.10;51.00;;;;;;5041922;28;20099;-62
2023/09/05 06:18:24;;;;;;;3.03;1.13;;;24.10;51.00;;;;;;5033058;28;20025;-62
2023/09/05 06:20:50;;;;;;;3.58;1.10;;;24.00;50.90;;;;;;5044341;28;20035;-62
2023/09/05 06:23:16;;;;;;;1.23;1.10;;;24.10;51.00;;;;;;5039626;28;20033;-63
2023/09/05 06:25:42;;;;;;;1.30;1.10;;;24.10;51.00;;;;;;5039949;28;20024;-63
2023/09/05 06:28:08;;;;;;;2.03;1.30;;;24.10;51.00;;;;;;5041372;28;20033;-63
2023/09/05 06:30:34;;;;;;;2.08;1.10;;;24.10;51.00;;;;;;5040551;28;20032;-63
2023/09/05 06:32:59;;;;;;;1.27;1.10;;;24.10;51.00;;;;;;5039579;28;20114;-63
2023/09/05 06:35:26;;;;;;;2.22;1.33;;;24.10;51.00;;;;;;5040408;28;20040;-62
2023/09/05 06:37:55;;;;;;;2.00;1.25;;;24.10;51.00;;;;;;5039833;28;20318;-62
2023/09/05 06:40:23;;;;;;;2.35;1.30;;;24.10;51.00;;;;;;5037348;28;20029;-62
2023/09/05 06:42:52;;;;;;;1.30;1.08;;;24.10;51.00;;;;;;5024872;28;20710;-62
2023/09/05 06:45:19;;;;;;;1.23;0.93;;;24.10;51.10;;;;;;5042504;28;20028;-62
2023/09/05 06:47:45;;;;;;;2.45;1.50;;;24.10;51.10;;;;;;5013973;28;20068;-63
2023/09/05 06:50:11;;;;;;;1.95;1.30;;;24.10;51.10;;;;;;5015253;28;20360;-62
2023/09/05 06:52:38;;;;;;;1.77;1.30;;;24.10;51.10;;;;;;5013833;28;20161;-62
2023/09/05 06:55:05;;;;;;;1.70;1.17;;;24.10;51.10;;;;;;5037872;28;20408;-63
2023/09/05 06:57:31;;;;;;;1.92;1.30;;;24.10;51.10;;;;;;5047903;28;20084;-63
2023/09/05 06:59:57;;;;;;;1.58;1.20;;;24.10;51.10;;;;;;5032072;28;20109;-63
2023/09/05 07:02:23;;;;;;;3.38;1.38;;;24.10;51.10;;;;;;5034922;28;20112;-63
2023/09/05 07:04:50;;;;;;;2.13;1.40;;;24.10;51.10;;;;;;5044715;28;20025;-62
2023/09/05 07:07:16;;;;;;;1.30;1.20;;;24.10;51.10;;;;;;5034348;28;20103;-62
2023/09/05 07:09:42;;;;;;;1.45;1.02;;;24.10;51.10;;;;;;5051987;28;20039;-63
2023/09/05 07:12:08;;;;;;;2.33;1.30;;;24.10;51.10;;;;;;5025389;28;20139;-63
2023/09/05 07:14:34;;;;;;;1.65;1.27;;;24.10;51.10;;;;;;5041026;28;20026;-63
2023/09/05 07:17:00;;;;;;;2.30;1.50;;;24.10;51.00;;;;;;5042620;28;20420;-63
2023/09/05 07:19:26;;;;;;;1.40;0.98;;;24.10;51.00;;;;;;5040287;28;20025;-63
2023/09/05 07:21:52;;;;;;;1.60;1.23;;;24.10;51.00;;;;;;5026338;28;20025;-63
2023/09/05 07:24:18;;;;;;;1.70;1.10;;;24.10;50.90;;;;;;5048520;28;20051;-62
2023/09/05 07:26:45;;;;;;;1.73;1.10;;;24.20;51.00;;;;;;5041728;28;20400;-64
2023/09/05 07:29:12;;;;;;;1.58;1.00;;;24.10;50.90;;;;;;5025571;28;20073;-63
2023/09/05 07:31:39;;;;;;;1.13;0.90;;;24.10;50.90;;;;;;5046252;28;20109;-62
2023/09/05 07:34:05;;;;;;;1.10;0.98;;;24.20;50.90;;;;;;5037900;28;20045;-63
2023/09/05 07:36:33;;;;;;;1.33;1.10;;;24.20;50.90;;;;;;5015587;28;20484;-62
2023/09/05 07:39:01;;;;;;;2.83;1.27;;;24.20;50.90;;;;;;5035204;28;20366;-63
2023/09/05 07:41:29;;;;;;;1.73;1.00;;;24.20;50.90;;;;;;5030235;28;20038;-63
2023/09/05 07:43:55;;;;;;;1.65;1.23;;;24.20;50.90;;;;;;5031647;28;20021;-62
2023/09/05 07:46:21;;;;;;;2.38;0.93;;;24.20;51.00;;;;;;5033834;28;20305;-63
2023/09/05 07:48:47;;;;;;;1.50;1.10;;;24.20;51.00;;;;;;5033709;28;20120;-63
2023/09/05 07:51:13;;;;;;;1.55;1.10;;;24.20;51.00;;;;;;5035789;28;20396;-62
2023/09/05 07:53:46;;;;;;;1.63;1.23;;;24.20;51.10;;;;;;5031340;28;20021;-63
2023/09/05 07:56:12;;;;;;;1.83;1.02;;;24.20;51.10;;;;;;5032974;28;20119;-62
2023/09/05 07:58:38;;;;;;;2.03;1.02;;;24.20;51.10;;;;;;5030254;28;20132;-61
2023/09/05 08:01:09;;;;;;;2.15;1.00;;;24.20;51.10;;;;;;5028164;28;20049;-62
2023/09/05 08:03:38;;;;;;;1.80;1.25;;;24.30;51.20;;;;;;5030482;28;20033;-62
2023/09/05 08:06:04;;;;;;;1.80;1.13;;;24.20;51.20;;;;;;5022457;28;20090;-60
2023/09/05 08:08:33;;;;;;;2.03;1.23;;;24.30;51.20;;;;;;5037127;28;20029;-61
2023/09/05 08:10:59;;;;;;;1.75;1.25;;;24.30;51.30;;;;;;5040707;28;20095;-61
2023/09/05 08:13:25;;;;;;;1.20;0.90;;;24.30;51.30;;;;;;5040088;28;20045;-61
2023/09/05 08:15:53;;;;;;;1.48;1.10;;;24.30;51.90;;;;;;5008239;28;20057;-60
2023/09/05 08:18:19;;;;;;;2.65;1.13;;;24.30;51.30;;;;;;5034430;28;20096;-60
2023/09/05 08:20:46;;;;;;;2.65;1.73;;;24.30;51.20;;;;;;5042269;28;20111;-61
2023/09/05 08:23:12;;;;;;;1.27;1.08;;;24.30;51.10;;;;;;5047510;28;20433;-61
2023/09/05 08:25:38;;;;;;;2.97;1.10;;;24.30;51.00;;;;;;5046043;28;20067;-60
2023/09/05 08:28:05;;;;;;;1.95;1.00;;;24.30;50.90;;;;;;5027121;28;20036;-61
2023/09/05 08:30:31;;;;;;;1.60;1.13;;;24.30;50.70;;;;;;5024265;28;20436;-62
2023/09/05 08:33:06;;;;;;;1.55;1.15;;;24.30;50.60;;;;;;5028673;28;20133;-61
2023/09/05 08:35:32;;;;;;;1.45;1.10;;;24.40;50.60;;;;;;5025093;28;20123;-61
2023/09/05 08:38:02;;;;;;;2.00;1.15;;;24.30;50.40;;;;;;5028924;28;20103;-63
2023/09/05 08:40:28;;;;;;;1.50;1.10;;;24.40;50.40;;;;;;5039610;28;20481;-61
2023/09/05 08:42:54;;;;;;;2.47;1.30;;;24.40;50.30;;;;;;5044197;28;20112;-61
2023/09/05 08:45:22;;;;;;;3.30;1.20;;;24.40;50.30;;;;;;5043254;28;20029;-60
2023/09/05 08:47:50;;;;;;;2.08;1.10;;;24.40;50.20;;;;;;5041986;28;20120;-61
2023/09/05 08:50:17;;;;;;;1.70;1.25;;;24.40;50.20;;;;;;5005526;28;20463;-60
2023/09/05 08:52:43;;;;;;;2.13;1.10;;;24.40;50.20;;;;;;5043490;28;20040;-60
2023/09/05 08:55:12;;;;;;;2.03;1.25;;;24.40;50.10;;;;;;5026046;28;20033;-60
2023/09/05 08:57:38;;;;;;;1.80;1.25;;;24.40;50.10;;;;;;5042784;28;20083;-60
2023/09/05 09:00:06;;;;;;;2.03;1.10;;;24.40;50.10;;;;;;5040342;28;20036;-60
2023/09/05 09:02:36;;;;;;;2.47;1.55;;;24.40;50.10;;;;;;5046931;28;20222;-60
2023/09/05 09:05:03;;;;;;;1.48;1.05;;;24.40;50.10;;;;;;5037090;28;20401;-60
2023/09/05 09:07:29;;;;;;;1.75;1.10;;;24.40;50.10;;;;;;5033860;28;20033;-60
2023/09/05 09:09:59;;;;;;;1.95;1.27;;;24.40;50.10;;;;;;5040615;28;20112;-60
2023/09/05 09:12:32;;;;;;;1.70;1.05;;;24.40;50.20;;;;;;5026088;28;20127;-61
2023/09/05 09:15:14;;;;;;;1.70;1.00;;;24.50;50.30;;;;;;5008953;28;20020;-61
2023/09/05 09:17:47;;;;;;;1.42;1.33;;;24.50;50.30;;;;;;5016948;28;20033;-61
2023/09/05 09:20:14;;;;;;;1.98;1.10;;;24.50;50.30;;;;;;5042700;28;20541;-60
2023/09/05 09:22:41;;;;;;;2.17;1.60;;;24.50;50.30;;;;;;5028770;28;20105;-60
2023/09/05 09:25:10;;;;;;;1.98;1.13;;;24.50;50.40;;;;;;5020207;28;20036;-60
2023/09/05 09:27:37;;;;;;;1.70;1.30;;;24.50;50.40;;;;;;5021515;28;20059;-61
2023/09/05 09:30:06;;;;;;;1.67;1.40;;;24.50;50.50;;;;;;5045216;28;20029;-61
2023/09/05 09:32:32;;;;;;;1.65;1.30;;;24.60;50.60;;;;;;5039301;28;20470;-61
2023/09/05 09:34:58;;;;;;;2.90;1.15;;;24.50;50.60;;;;;;5043213;28;20021;-61
2023/09/05 09:37:25;;;;;;;1.77;1.33;;;24.60;50.70;;;;;;5045532;28;20439;-61
2023/09/05 09:40:01;;;;;;;1.83;1.30;;;24.60;50.70;;;;;;5043074;28;20101;-61
2023/09/05 09:42:28;;;;;;;1.95;1.30;;;24.60;50.70;;;;;;5008766;28;20305;-60
2023/09/05 09:44:55;;;;;;;2.95;1.00;;;24.60;50.80;;;;;;5024352;28;20085;-60
2023/09/05 09:47:21;;;;;;;2.00;1.27;;;24.60;51.40;;;;;;5021819;28;20144;-61
2023/09/05 09:49:50;;;;;;;1.98;1.30;;;24.60;50.80;;;;;;5022937;28;20048;-60
2023/09/05 09:52:20;;;;;;;2.78;1.20;;;24.60;50.90;;;;;;5026387;28;20034;-60
2023/09/05 09:54:47;;;;;;;3.85;1.30;;;24.60;50.90;;;;;;5017854;28;20026;-61
2023/09/05 09:57:17;;;;;;;1.95;1.30;;;24.60;50.90;;;;;;5021685;28;21707;-61
2023/09/05 09:59:52;;;;;;;1.40;1.02;;;24.60;50.90;;;;;;5019260;28;20824;-63
2023/09/05 10:02:20;;;;;;;2.35;1.30;;;24.60;50.90;;;;;;5018361;28;20060;-61
2023/09/05 10:04:48;;;;;;;1.88;1.10;;;24.70;51.00;;;;;;5021764;28;20148;-61
2023/09/05 10:07:15;;;;;;;1.90;1.10;;;24.70;51.00;;;;;;5012712;28;20033;-62
2023/09/05 10:09:44;;;;;;;1.75;1.23;;;24.70;51.00;;;;;;5015469;28;20132;-61
2023/09/05 10:12:11;;;;;;;1.60;1.20;;;24.70;51.00;;;;;;5020142;28;20042;-61
2023/09/05 10:14:40;;;;;;;1.98;1.40;;;24.70;51.00;;;;;;5023283;28;20108;-64
2023/09/05 10:17:07;;;;;;;2.35;1.10;;;24.70;51.00;;;;;;5009496;28;20065;-61
2023/09/05 10:19:35;;;;;;;1.60;1.17;;;24.70;51.00;;;;;;5020678;28;20181;-61
2023/09/05 10:22:02;;;;;;;1.52;1.13;;;24.70;51.00;;;;;;5012231;28;20310;-61
2023/09/05 10:24:31;;;;;;;2.08;1.35;;;24.70;51.00;;;;;;5014210;28;20439;-68
2023/09/05 10:26:57;;;;;;;1.38;0.98;;;24.80;51.00;;;;;;5040353;28;20029;-66
2023/09/05 10:29:40;;;;;;;1.45;1.08;;;24.80;51.10;;;;;;5024658;28;20029;-68
2023/09/05 10:32:07;;;;;;;1.60;1.00;;;24.80;51.10;;;;;;5009965;28;20045;-63
2023/09/05 10:34:48;;;;;;;2.13;1.30;;;24.90;51.20;;;;;;5016090;28;20034;-67
2023/09/05 10:37:14;;;;;;;2.40;1.23;;;24.90;51.20;;;;;;5016890;28;20061;-64
2023/09/05 10:39:48;;;;;;;1.75;1.15;;;25.00;51.30;;;;;;5020204;28;20022;-62
2023/09/05 10:42:15;;;;;;;2.25;1.13;;;25.20;51.40;;;;;;5019111;28;20126;-64
2023/09/05 10:44:47;;;;;;;2.47;1.20;;;25.30;51.40;;;;;;5012185;28;20426;-64
2023/09/05 10:47:27;;;;;;;2.10;1.40;;;25.40;51.40;;;;;;5024148;28;20341;-64
2023/09/05 10:50:00;;;;;;;1.90;1.20;;;25.50;51.80;;;;;;5034286;28;20041;-64
2023/09/05 10:52:32;;;;;;;2.33;1.20;;;25.70;51.70;;;;;;5039629;28;20084;-64
2023/09/05 10:55:18;;;;;;;1.92;1.20;;;25.80;50.90;;;;;;5040173;28;20053;-65
2023/09/05 10:57:47;;;;;;;1.85;1.17;;;25.90;50.70;;;;;;5017650;28;20037;-64
2023/09/05 11:00:14;;;;;;;1.75;1.17;;;26.00;50.50;;;;;;5034771;28;20033;-64
2023/09/05 11:02:43;;;;;;;1.70;1.10;;;26.10;50.40;;;;;;5038596;28;20021;-62
2023/09/05 11:05:18;;;;;;;1.40;1.15;;;26.20;50.30;;;;;;5037652;28;20041;-62
2023/09/05 11:07:55;;;;;;;1.75;1.17;;;26.30;50.10;;;;;;5036592;28;20059;-64
2023/09/05 11:10:28;;;;;;;3.33;1.35;;;26.30;50.00;;;;;;5034334;28;20044;-63
2023/09/05 11:12:54;;;;;;;1.63;1.20;;;26.40;49.90;;;;;;5017227;28;20131;-63
2023/09/05 11:15:36;;;;;;;3.63;1.13;;;26.50;49.80;;;;;;5035002;28;20304;-64
2023/09/05 11:18:05;;;;;;;1.75;1.10;;;26.60;49.70;;;;;;5043079;28;20101;-61
2023/09/05 11:20:47;;;;;;;2.17;1.20;;;26.70;49.60;;;;;;5020290;28;20083;-63
2023/09/05 11:23:16;;;;;;;1.83;1.00;;;26.80;49.60;;;;;;5040434;28;20070;-63
2023/09/05 11:25:53;;;;;;;1.88;1.10;;;26.80;49.60;;;;;;5047456;28;20195;-62
2023/09/05 11:28:22;;;;;;;1.10;0.90;;;26.90;49.50;;;;;;5036494;28;20032;-63
2023/09/05 11:30:57;;;;;;;2.90;0.98;;;27.00;49.40;;;;;;5027872;28;20039;-64
2023/09/05 11:33:24;;;;;;;1.88;0.77;;;27.00;49.30;;;;;;5043337;28;20456;-65
2023/09/05 11:35:51;;;;;;;1.65;1.20;;;27.00;49.20;;;;;;5027360;28;20032;-64
2023/09/05 11:38:20;;;;;;;1.77;1.08;;;27.10;49.20;;;;;;5042567;28;20047;-66
2023/09/05 11:40:53;;;;;;;3.08;1.30;;;27.10;49.10;;;;;;5038478;28;20026;-65
2023/09/05 11:43:24;;;;;;;1.63;1.23;;;27.20;49.10;;;;;;5035509;28;20039;-70
2023/09/05 11:45:57;;;;;;;1.45;1.17;;;27.30;49.00;;;;;;5015435;28;20113;-66
2023/09/05 11:48:25;;;;;;;3.20;1.38;;;27.30;49.00;;;;;;5036883;28;20155;-67
2023/09/05 11:50:53;;;;;;;2.72;1.02;;;27.30;48.80;;;;;;5040703;28;20029;-67
2023/09/05 11:53:20;;;;;;;1.70;1.00;;;27.30;48.70;;;;;;5044611;28;21380;-68
2023/09/05 11:55:47;;;;;;;1.45;1.00;;;27.40;48.70;;;;;;5046474;28;20345;-65
2023/09/05 11:58:16;;;;;;;1.85;1.05;;;27.50;48.70;;;;;;5031658;28;20032;-65
2023/09/05 12:00:44;;;;;;;2.35;1.30;;;27.50;48.70;;;;;;5036518;28;20025;-67
2023/09/05 12:03:12;;;;;;;2.45;1.38;;;27.60;48.60;;;;;;5044605;28;20132;-64
2023/09/05 12:05:38;;;;;;;2.25;1.05;;;27.60;48.50;;;;;;5038315;28;20030;-63
2023/09/05 12:08:06;;;;;;;1.73;1.20;;;27.60;48.50;;;;;;5033741;28;20101;-64
2023/09/05 12:10:50;;;;;;;3.60;1.10;;;27.60;48.40;;;;;;5024847;28;20109;-64
2023/09/05 12:13:16;;;;;;;;;;;27.60;48.40;;;;;;5048120;28;20060;-66
2023/09/05 12:15:45;;;;;;;2.08;0.88;;;27.70;48.50;;;;;;5020287;28;20252;-63
2023/09/05 12:18:19;;;;;;;3.83;1.02;;;27.70;48.40;;;;;;5039740;28;20108;-66
2023/09/05 12:20:54;;;;;;;;;;;27.70;48.30;;;;;;5053974;28;20029;-63
2023/09/05 12:23:23;;;;;;;2.22;0.98;;;27.80;48.40;;;;;;5053558;28;19909;-65
2023/09/05 12:25:52;;;;;;;1.30;1.00;;;27.70;48.30;;;;;;5018717;28;20113;-66
2023/09/05 12:28:20;;;;;;;1.50;1.00;;;27.80;48.30;;;;;;5021488;28;20076;-63
2023/09/05 12:30:53;;;;;;;2.20;1.10;;;27.80;48.30;;;;;;5034397;28;20017;-64
2023/09/05 12:33:20;;;;;;;1.42;0.98;;;27.80;48.20;;;;;;5030942;28;20134;-64
2023/09/05 12:35:46;;;;;;;2.72;0.93;;;27.70;48.10;;;;;;5047989;28;20021;-63
2023/09/05 12:38:14;;;;;;;1.67;1.00;;;27.80;48.00;;;;;;5044331;28;20103;-66
2023/09/05 12:40:43;;;;;;;1.02;0.85;;;27.80;48.00;;;;;;5053551;28;20029;-63
2023/09/05 12:43:09;;;;;;;2.15;0.82;;;27.70;47.80;;;;;;5042086;28;20029;-64
2023/09/05 12:45:35;;;;;;;1.17;1.08;;;27.80;47.80;;;;;;5028368;28;20069;-64
2023/09/05 12:48:01;;;;;;;1.20;1.00;;;27.80;47.70;;;;;;5022223;28;20482;-66
2023/09/05 12:50:35;;;;;;;1.33;0.90;;;27.80;47.60;;;;;;5033287;28;20044;-64